Terminal Aerodrome Forecast
Issued by NWS

Home | Current Version | Previous Version | Text Only | Print | Product List | Glossary Off
Versions: 1 2 3 4 5 6 7 8 9 10 11 12 13 14 15 16 17 18

000
FTUS43 KMPX 282339
TAFRWF
TAF
KRWF 282339Z 2900/2924 05006KT P6SM OVC015
     FM290300 04005KT P6SM BKN020
     FM290600 03003KT P6SM BKN040
     FM291200 05005KT P6SM SCT040 BKN080
     FM291800 08009KT P6SM BKN100=

USA.gov is the U.S. government's official web portal to all federal, state and local government web resources and services.